Time;durP1;ratioP1;P1;durP2;ratioP2;P2;SDS_P1;SDS_P2;PMS_P1;PMS_P2;Temp;Humidity;BMP_temperature;BMP_pressure;BME280_temperature;BME280_humidity;BME280_pressure;Samples;Min_cycle;Max_cycle;Signal;HPM_P1;HPM_P2
2022/04/18 00:00:09;;;;;;;;;16.75;15.50;;;;;9.81;43.55;99401.34;5048517;28;9622;-76
2022/04/18 00:02:58;;;;;;;;;12.00;11.60;;;;;9.74;43.54;99397.91;5060720;28;8865;-78
2022/04/18 00:05:28;;;;;;;;;16.20;14.20;;;;;9.70;43.94;99389.22;5063561;28;8871;-77
2022/04/18 00:07:56;;;;;;;;;16.75;15.75;;;;;9.67;44.28;99391.81;5080481;28;8868;-78
2022/04/18 00:10:25;;;;;;;;;16.75;16.00;;;;;9.63;44.56;99387.47;5047925;28;8857;-77
2022/04/18 00:12:55;;;;;;;;;16.25;15.75;;;;;9.60;44.33;99392.66;5029660;28;8941;-78
2022/04/18 00:15:24;;;;;;;;;17.00;16.00;;;;;9.55;44.46;99391.81;4997322;28;8959;-77
2022/04/18 00:17:54;;;;;;;;;15.40;15.20;;;;;9.51;44.12;99384.88;5047149;28;8857;-79
2022/04/18 00:20:23;;;;;;;;;16.75;15.75;;;;;9.44;44.64;99380.50;5032686;28;8857;-79
2022/04/18 00:22:52;;;;;;;;;17.50;15.75;;;;;9.36;44.12;99381.38;5032347;28;8989;-79
2022/04/18 00:25:20;;;;;;;;;13.20;12.00;;;;;9.30;44.17;99388.28;5015883;28;8854;-78
2022/04/18 00:27:50;;;;;;;;;15.40;14.40;;;;;9.25;44.40;99385.69;5032595;28;8838;-78
2022/04/18 00:30:21;;;;;;;;;10.40;10.40;;;;;9.23;44.01;99379.59;5034556;28;8862;-78
2022/04/18 00:32:49;;;;;;;;;15.25;15.25;;;;;9.12;44.12;99379.56;5018117;28;8942;-78
2022/04/18 00:35:18;;;;;;;;;11.40;11.40;;;;;9.06;44.04;99376.97;5033607;28;8848;-78
2022/04/18 00:37:47;;;;;;;;;15.20;13.20;;;;;8.97;44.39;99379.53;4971502;28;8935;-78
2022/04/18 00:40:15;;;;;;;;;12.75;11.00;;;;;8.93;45.17;99383.00;5032239;28;8844;-79
2022/04/18 00:42:44;;;;;;;;;12.25;12.25;;;;;8.91;45.14;99375.19;5013465;28;8860;-79
2022/04/18 00:45:15;;;;;;;;;17.75;16.75;;;;;8.88;45.35;99369.09;5030015;28;8853;-77
2022/04/18 00:47:46;;;;;;;;;17.80;15.60;;;;;8.86;44.90;99371.69;5012953;28;8870;-79
2022/04/18 00:50:15;;;;;;;;;13.80;13.80;;;;;8.83;45.12;99369.09;5029432;28;8852;-77
2022/04/18 00:52:45;;;;;;;;;15.60;13.00;;;;;8.80;45.11;99369.06;5028972;28;8941;-79
2022/04/18 00:55:14;;;;;;;;;15.00;15.00;;;;;8.77;44.54;99358.66;5059230;28;8857;-77
2022/04/18 00:57:45;;;;;;;;;14.75;11.75;;;;;8.75;45.27;99366.47;5066511;28;8857;-80
2022/04/18 01:00:14;;;;;;;;;16.80;15.40;;;;;8.74;44.68;99359.50;5066596;28;8849;-79
2022/04/18 01:02:43;;;;;;;;;16.60;16.60;;;;;8.73;45.50;99354.31;5049836;28;8919;-79
2022/04/18 01:05:13;;;;;;;;;5.40;5.40;;;;;8.74;45.58;99350.84;5066677;28;9041;-77
2022/04/18 01:07:42;;;;;;;;;14.20;13.00;;;;;8.75;44.82;99349.97;5050016;28;8942;-77
2022/04/18 01:10:11;;;;;;;;;20.00;15.50;;;;;8.75;45.60;99345.66;5050960;28;8853;-78
2022/04/18 01:12:41;;;;;;;;;17.80;14.00;;;;;8.73;44.85;99347.41;5049987;28;8872;-79
2022/04/18 01:15:22;;;;;;;;;17.50;16.50;;;;;8.71;45.15;99345.63;5049467;28;9012;-77
2022/04/18 01:18:11;;;;;;;;;17.00;14.75;;;;;8.72;44.87;99342.19;5049801;28;8891;-77
2022/04/18 01:20:59;;;;;;;;;19.25;16.25;;;;;8.76;45.12;99342.19;5049782;28;8857;-79
2022/04/18 01:23:44;;;;;;;;;15.75;15.25;;;;;8.80;45.33;99334.41;5066005;28;8932;-78
2022/04/18 01:29:10;;;;;;;;;17.25;16.75;;;;;8.81;44.94;99320.53;5048474;28;8833;-79
2022/04/18 01:31:43;;;;;;;;;14.75;13.75;;;;;8.82;44.91;99317.09;5049682;28;8871;-77
2022/04/18 01:34:12;;;;;;;;;17.80;16.00;;;;;8.83;44.57;99318.81;5049270;28;8860;-79
2022/04/18 01:36:42;;;;;;;;;17.00;13.60;;;;;8.84;43.94;99321.41;5049218;28;8868;-80
2022/04/18 01:39:12;;;;;;;;;19.40;17.60;;;;;8.86;44.84;99314.47;5066296;28;8957;-78
2022/04/18 01:41:42;;;;;;;;;13.80;11.00;;;;;8.85;43.98;99315.38;5065890;28;8863;-78
2022/04/18 01:44:13;;;;;;;;;19.00;17.20;;;;;8.84;44.12;99313.59;5066271;28;8848;-78
2022/04/18 01:46:42;;;;;;;;;15.00;14.80;;;;;8.84;44.52;99300.59;5083007;28;8869;-78
2022/04/18 01:49:12;;;;;;;;;18.40;15.60;;;;;8.86;44.60;99306.69;5082932;28;8960;-78
2022/04/18 01:51:42;;;;;;;;;14.80;13.40;;;;;8.86;45.59;99300.63;5049431;28;8879;-79
2022/04/18 01:54:11;;;;;;;;;20.25;18.75;;;;;8.86;45.59;99296.28;5049487;28;8865;-79
2022/04/18 01:56:40;;;;;;;;;22.25;15.75;;;;;8.87;45.68;99300.63;5048623;28;8978;-78
2022/04/18 01:59:08;;;;;;;;;19.00;18.00;;;;;8.87;46.20;99300.63;5065331;28;8841;-77
2022/04/18 02:01:37;;;;;;;;;20.00;17.00;;;;;8.87;46.10;99298.03;5082422;28;8872;-78
2022/04/18 02:04:06;;;;;;;;;17.00;16.50;;;;;8.86;46.94;99296.28;5082476;28;8872;-80
2022/04/18 02:06:35;;;;;;;;;15.75;13.50;;;;;8.88;46.28;99293.69;4998391;28;8861;-78
2022/04/18 02:09:06;;;;;;;;;13.60;11.80;;;;;8.88;45.72;99291.94;5082234;28;8895;-80
2022/04/18 02:11:35;;;;;;;;;21.50;19.75;;;;;8.53;48.14;99297.06;5048354;28;8861;-78
2022/04/18 02:14:03;;;;;;;;;17.50;15.00;;;;;8.34;47.62;99290.91;5031151;28;8869;-78
2022/04/18 02:16:33;;;;;;;;;6.75;5.75;;;;;8.17;48.38;99286.47;5032305;28;8849;-77
2022/04/18 02:19:05;;;;;;;;;16.00;16.00;;;;;8.19;47.75;99287.34;5048742;28;8861;-77
2022/04/18 02:21:33;;;;;;;;;18.20;14.00;;;;;8.25;48.42;99294.31;5037863;28;8861;-78
2022/04/18 02:24:02;;;;;;;;;9.75;8.50;;;;;8.35;47.93;99297.81;5070362;28;8870;-79
2022/04/18 02:26:32;;;;;;;;;13.40;12.40;;;;;8.44;46.62;99286.63;5052879;28;8858;-79
2022/04/18 02:29:08;;;;;;;;;9.60;9.60;;;;;8.49;46.83;99291.00;5069648;28;8846;-77
2022/04/18 02:32:47;;;;;;;;;14.60;12.40;;;;;8.50;46.13;99291.84;5072920;28;8862;-77
2022/04/18 02:34:26;;;;;;;;;12.00;10.25;;;;;8.54;46.18;99291.00;5058967;28;9608;-79
2022/04/18 02:36:57;;;;;;;;;9.50;8.50;;;;;8.22;46.65;99290.81;5068630;28;8881;-80
2022/04/18 02:39:31;;;;;;;;;13.80;12.40;;;;;7.30;48.86;99299.75;5035219;28;8945;-80
2022/04/18 02:42:01;;;;;;;;;9.50;7.00;;;;;6.48;51.01;99303.19;5102321;28;8861;-78
2022/04/18 02:44:33;;;;;;;;;8.40;6.40;;;;;6.30;51.83;99298.69;5051758;28;8885;-77
2022/04/18 02:47:02;;;;;;;;;13.60;11.40;;;;;6.03;52.11;99299.16;5068315;28;8885;-79
2022/04/18 02:49:31;;;;;;;;;9.00;9.00;;;;;6.23;51.66;99300.31;5051919;28;8850;-79
2022/04/18 02:52:01;;;;;;;;;13.80;12.20;;;;;6.49;51.08;99294.59;5058068;28;8868;-78
2022/04/18 02:54:30;;;;;;;;;10.20;10.20;;;;;6.04;52.13;99301.78;5064350;28;8979;-78
2022/04/18 02:56:59;;;;;;;;;16.00;10.00;;;;;5.53;53.55;99296.69;5048969;28;8849;-77
2022/04/18 02:59:29;;;;;;;;;9.80;9.80;;;;;5.32;53.52;99286.88;5048747;28;8845;-78
2022/04/18 03:01:58;;;;;;;;;14.80;9.00;;;;;5.57;53.09;99294.16;5048369;28;8868;-80
2022/04/18 03:04:27;;;;;;;;;10.80;9.00;;;;;5.81;52.05;99290.22;5064266;28;8911;-77
2022/04/18 03:06:56;;;;;;;;;8.40;8.40;;;;;5.66;52.81;99291.72;5064311;28;8838;-79
2022/04/18 03:09:24;;;;;;;;;5.80;5.80;;;;;5.60;53.44;99289.06;5064303;28;9626;-78
2022/04/18 03:11:53;;;;;;;;;10.80;10.80;;;;;5.89;52.32;99295.50;5047429;28;9626;-78
2022/04/18 03:14:23;;;;;;;;;10.75;8.75;;;;;5.61;53.04;99297.69;5030202;28;8928;-77
2022/04/18 03:17:00;;;;;;;;;11.60;8.20;;;;;5.13;53.55;99294.31;5047522;28;8858;-79
2022/04/18 03:19:31;;;;;;;;;8.20;8.20;;;;;4.87;54.52;99288.69;5064435;28;8841;-78
2022/04/18 03:22:00;;;;;;;;;8.80;8.00;;;;;4.86;54.73;99290.41;5064138;28;9657;-78
2022/04/18 03:24:33;;;;;;;;;11.60;9.40;;;;;4.77;54.84;99297.13;5063829;28;8841;-78
2022/04/18 03:27:14;;;;;;;;;9.40;8.60;;;;;4.77;54.90;99291.97;5086166;28;9000;-78
2022/04/18 03:29:43;;;;;;;;;6.80;6.80;;;;;4.89;54.36;99293.03;5052893;28;8850;-78
2022/04/18 03:32:21;;;;;;;;;13.40;12.60;;;;;4.58;55.92;99295.91;5070506;28;8895;-79
2022/04/18 03:34:50;;;;;;;;;8.00;8.00;;;;;4.64;55.62;99288.28;5053527;28;8822;-78
2022/04/18 03:40:07;;;;;;;;;9.50;9.50;;;;;5.00;54.22;99290.66;5074640;28;8850;-77
2022/04/18 03:42:37;;;;;;;;;10.75;9.25;;;;;5.10;54.28;99286.50;4994154;28;8858;-78
2022/04/18 03:45:09;;;;;;;;;8.00;7.00;;;;;4.80;55.18;99284.25;5072477;28;8860;-79
2022/04/18 03:47:40;;;;;;;;;10.60;9.00;;;;;4.96;54.52;99285.41;5085899;28;8865;-78
2022/04/18 03:50:09;;;;;;;;;12.50;12.00;;;;;5.03;54.33;99282.97;5069837;28;8854;-77
2022/04/18 03:52:40;;;;;;;;;8.00;6.80;;;;;5.33;53.88;99279.16;5071425;28;8846;-81
2022/04/18 03:55:25;;;;;;;;;14.50;13.00;;;;;5.59;52.70;99270.91;5074327;28;8950;-79
2022/04/18 03:57:55;;;;;;;;;9.00;9.00;;;;;5.81;51.85;99272.97;5065090;28;8887;-79
2022/04/18 04:00:24;;;;;;;;;7.75;6.25;;;;;5.98;51.60;99277.56;5084408;28;8871;-79
2022/04/18 04:02:54;;;;;;;;;24.25;23.25;;;;;6.14;51.38;99279.47;5050815;28;8879;-79
2022/04/18 04:05:29;;;;;;;;;18.75;16.25;;;;;6.25;50.85;99282.22;5029666;28;8951;-80
2022/04/18 04:08:00;;;;;;;;;11.60;10.40;;;;;6.36;50.09;99280.63;4997670;28;9653;-76
2022/04/18 04:10:32;;;;;;;;;9.25;9.00;;;;;6.52;50.13;99284.28;5029965;28;8840;-78
2022/04/18 04:13:03;;;;;;;;;12.80;9.60;;;;;6.48;49.91;99285.06;5029619;28;8975;-78
2022/04/18 04:15:41;;;;;;;;;11.80;11.80;;;;;5.64;52.33;99288.25;5001692;28;8856;-78
2022/04/18 04:18:23;;;;;;;;;7.20;6.00;;;;;5.35;53.28;99286.91;4986553;28;8852;-78
2022/04/18 04:20:55;;;;;;;;;11.50;10.25;;;;;5.50;53.49;99287.19;5014976;28;8894;-78
2022/04/18 04:23:24;;;;;;;;;54.75;43.00;;;;;5.75;52.52;99285.81;5032520;28;8906;-78
2022/04/18 04:26:34;;;;;;;;;17.50;14.75;;;;;5.51;53.37;99286.31;4981420;28;8965;-79
2022/04/18 04:29:03;;;;;;;;;16.60;14.60;;;;;5.15;54.42;99287.47;4970638;28;9745;-79
2022/04/18 04:31:37;;;;;;;;;14.20;11.20;;;;;5.23;54.40;99282.41;4970597;28;8868;-77
2022/04/18 04:34:10;;;;;;;;;19.75;17.00;;;;;5.41;54.00;99284.44;4986870;28;9626;-80
2022/04/18 04:36:49;;;;;;;;;15.25;15.25;;;;;5.63;53.41;99283.94;5008462;28;8879;-80
2022/04/18 04:39:22;;;;;;;;;17.00;16.00;;;;;5.91;52.42;99283.47;5009410;28;8874;-78
2022/04/18 04:41:51;;;;;;;;;64.75;52.00;;;;;6.12;51.55;99280.31;5026156;28;8863;-79
2022/04/18 04:44:19;;;;;;;;;34.50;31.25;;;;;6.33;51.04;99282.31;5009721;28;8890;-78
2022/04/18 04:46:58;;;;;;;;;14.75;12.50;;;;;6.52;50.18;99273.91;4993047;28;8883;-79
2022/04/18 04:49:31;;;;;;;;;17.50;13.75;;;;;6.68;49.64;99274.09;5009223;28;8874;-79
2022/04/18 04:52:20;;;;;;;;;12.20;12.20;;;;;6.83;49.04;99277.69;5025423;28;8871;-77
2022/04/18 04:54:50;;;;;;;;;15.40;14.00;;;;;6.94;48.67;99283.00;5025237;28;8891;-76
2022/04/18 04:57:38;;;;;;;;;16.25;15.50;;;;;7.13;48.09;99283.16;5025584;28;8875;-79
2022/04/18 05:00:44;;;;;;;;;20.00;20.00;;;;;7.29;47.86;99269.47;4992325;28;8859;-79
2022/04/18 05:03:25;;;;;;;;;14.75;14.75;;;;;7.41;47.00;99269.56;5042700;28;8849;-77
2022/04/18 05:05:56;;;;;;;;;16.80;14.80;;;;;7.52;47.13;99272.22;5083029;28;8875;-77
2022/04/18 05:08:35;;;;;;;;;17.20;17.20;;;;;7.64;47.06;99263.69;5082012;28;8878;-78
2022/04/18 05:11:06;;;;;;;;;20.50;18.00;;;;;7.70;46.21;99271.50;5069608;28;8842;-78
2022/04/18 05:13:48;;;;;;;;;18.00;16.25;;;;;7.82;46.83;99268.09;5053018;28;8926;-78
2022/04/18 05:16:19;;;;;;;;;21.00;20.00;;;;;7.96;46.01;99268.22;5069627;28;8862;-78
2022/04/18 05:18:55;;;;;;;;;20.50;17.00;;;;;7.97;45.96;99270.78;5086372;28;8866;-78
2022/04/18 05:21:26;;;;;;;;;19.00;19.00;;;;;8.07;46.11;99265.63;5069436;28;8866;-78
2022/04/18 05:24:01;;;;;;;;;20.50;19.75;;;;;8.19;45.24;99260.53;5069538;28;8951;-79
2022/04/18 05:26:31;;;;;;;;;18.50;18.50;;;;;8.31;45.26;99267.50;5086191;28;8877;-78
2022/04/18 05:29:00;;;;;;;;;23.25;23.25;;;;;8.44;45.21;99264.09;5069701;28;8880;-79
2022/04/18 05:31:30;;;;;;;;;21.75;18.00;;;;;8.53;45.04;99264.13;5052765;28;8874;-78
2022/04/18 05:34:00;;;;;;;;;18.75;18.25;;;;;8.65;44.46;99263.31;5057498;28;8861;-79
2022/04/18 05:36:34;;;;;;;;;18.75;16.00;;;;;8.76;44.38;99268.53;5047873;28;8856;-79
2022/04/18 05:39:07;;;;;;;;;37.25;32.50;;;;;8.77;44.90;99265.94;5049289;28;8953;-77
2022/04/18 05:41:44;;;;;;;;;25.75;24.50;;;;;8.73;45.09;99260.72;5065750;28;8849;-79
2022/04/18 05:44:19;;;;;;;;;34.00;33.00;;;;;8.61;45.66;99265.91;5082355;28;8945;-78
2022/04/18 05:46:55;;;;;;;;;29.50;27.50;;;;;7.69;48.29;99269.75;5065654;28;8845;-79
2022/04/18 05:49:27;;;;;;;;;37.50;31.25;;;;;7.18;50.50;99277.16;5067033;28;8848;-77
2022/04/18 05:52:00;;;;;;;;;26.25;24.25;;;;;7.11;51.03;99271.91;5084312;28;8889;-79
2022/04/18 05:54:29;;;;;;;;;25.75;22.75;;;;;7.33;51.13;99266.03;5050013;28;8986;-78
2022/04/18 05:57:02;;;;;;;;;36.25;34.00;;;;;7.17;51.59;99261.59;5050628;28;8913;-77
2022/04/18 05:59:53;;;;;;;;;35.75;31.00;;;;;7.47;50.94;99258.38;5050899;28;8847;-77
2022/04/18 06:02:26;;;;;;;;;32.25;30.50;;;;;7.87;50.69;99255.16;5034220;28;8846;-78
2022/04/18 06:05:01;;;;;;;;;30.50;28.25;;;;;8.12;49.91;99257.00;4989184;28;8957;-78
2022/04/18 06:07:31;;;;;;;;;32.00;29.50;;;;;8.32;48.79;99256.25;5071491;28;9722;-77
2022/04/18 06:10:23;;;;;;;;;35.25;29.25;;;;;8.74;48.37;99258.13;5009787;28;8854;-79
2022/04/18 06:13:04;;;;;;;;;28.00;26.75;;;;;8.91;47.43;99262.50;4976163;28;9047;-78
2022/04/18 06:15:33;;;;;;;;;23.75;21.50;;;;;8.95;48.13;99259.91;4991025;28;8862;-76
2022/04/18 06:18:02;;;;;;;;;24.50;20.75;;;;;9.04;47.72;99263.38;4991215;28;8950;-76
2022/04/18 06:20:32;;;;;;;;;26.00;24.00;;;;;8.44;48.08;99271.03;4990824;28;8870;-78
2022/04/18 06:23:02;;;;;;;;;22.25;22.00;;;;;7.79;49.80;99275.91;4952456;28;8856;-80
2022/04/18 06:25:31;;;;;;;;;23.25;21.50;;;;;8.24;49.15;99277.00;4968301;28;9603;-80
2022/04/18 06:28:01;;;;;;;;;26.25;23.00;;;;;8.40;49.41;99278.78;4968361;28;8849;-79
2022/04/18 06:30:38;;;;;;;;;25.50;21.00;;;;;8.55;48.57;99275.41;4968707;28;9631;-79
2022/04/18 06:33:43;;;;;;;;;21.75;21.25;;;;;7.63;50.25;99284.44;4987608;28;8845;-79
2022/04/18 06:36:12;;;;;;;;;26.75;25.75;;;;;6.76;53.40;99288.84;4987597;28;8890;-77
2022/04/18 06:38:51;;;;;;;;;19.00;17.00;;;;;7.08;53.37;99290.03;4955537;28;9078;-76
2022/04/18 06:41:26;;;;;;;;;22.00;21.25;;;;;7.48;52.05;99286.03;4971418;28;8967;-79
2022/04/18 06:43:55;;;;;;;;;22.00;19.25;;;;;7.54;51.93;99287.81;4971227;28;9634;-77
2022/04/18 06:46:28;;;;;;;;;15.25;14.25;;;;;7.88;50.92;99277.66;4971753;28;8862;-78
2022/04/18 06:49:04;;;;;;;;;20.50;19.75;;;;;8.16;49.12;99276.94;4979476;28;8935;-78
2022/04/18 06:52:08;;;;;;;;;19.25;18.50;;;;;8.38;48.90;99270.13;5026729;28;8873;-78
2022/04/18 06:55:09;;;;;;;;;20.50;19.50;;;;;8.24;49.28;99279.59;5026440;28;8851;-77
2022/04/18 06:57:39;;;;;;;;;20.75;17.75;;;;;8.58;49.49;99278.03;5013655;28;8850;-77
2022/04/18 07:00:13;;;;;;;;;16.00;15.00;;;;;9.06;47.81;99274.66;5029902;28;8850;-79
2022/04/18 07:02:45;;;;;;;;;28.00;22.00;;;;;9.34;48.03;99273.81;5006832;28;9620;-78
2022/04/18 07:05:14;;;;;;;;;22.25;21.00;;;;;9.52;46.36;99269.47;4974397;28;8916;-77
2022/04/18 07:07:43;;;;;;;;;26.75;22.75;;;;;8.48;48.69;99281.44;5007358;28;8870;-79
2022/04/18 07:10:13;;;;;;;;;20.25;17.50;;;;;8.48;50.02;99284.03;5063259;28;9533;-77
2022/04/18 07:12:42;;;;;;;;;23.75;20.00;;;;;8.91;48.09;99280.69;5046782;28;8931;-78
2022/04/18 07:15:11;;;;;;;;;24.00;23.50;;;;;9.04;47.87;99285.06;5046618;28;8865;-79
2022/04/18 07:17:42;;;;;;;;;24.00;24.00;;;;;8.18;49.58;99289.94;5062547;28;8861;-77
2022/04/18 07:20:12;;;;;;;;;28.00;25.75;;;;;7.54;51.00;99301.69;5029213;28;8864;-79
2022/04/18 07:22:41;;;;;;;;;31.25;29.50;;;;;6.90;53.38;99296.78;5062812;28;8987;-78
2022/04/18 07:25:14;;;;;;;;;24.25;24.25;;;;;6.80;53.74;99293.19;5062880;28;8876;-77
2022/04/18 07:27:49;;;;;;;;;28.50;28.00;;;;;6.87;53.80;99286.38;5062081;28;8996;-78
2022/04/18 07:30:18;;;;;;;;;31.75;30.25;;;;;6.97;54.63;99308.06;5045575;28;9036;-80
2022/04/18 07:32:47;;;;;;;;;29.25;26.25;;;;;6.91;54.12;99302.81;5063198;28;8908;-77
2022/04/18 07:35:21;;;;;;;;;29.75;28.00;;;;;6.84;54.50;99299.28;5031117;28;8852;-79
2022/04/18 07:40:55;;;;;;;;;34.50;29.00;;;;;7.22;54.20;99312.66;5064272;28;9649;-76
2022/04/18 07:43:26;;;;;;;;;27.25;24.75;;;;;7.05;54.93;99308.13;5047402;28;8849;-78
2022/04/18 07:45:56;;;;;;;;;21.75;19.75;;;;;6.79;55.81;99304.44;5049231;28;8844;-78
2022/04/18 07:48:25;;;;;;;;;30.25;25.75;;;;;6.69;55.90;99314.66;5014239;28;8841;-79
2022/04/18 07:53:43;;;;;;;;;28.50;26.75;;;;;6.94;55.52;99308.91;5086358;28;8881;-77
2022/04/18 07:56:13;;;;;;;;;29.50;25.50;;;;;7.36;54.20;99309.31;5054106;28;8825;-78
2022/04/18 07:58:42;;;;;;;;;27.00;26.25;;;;;7.53;53.58;99302.53;5092272;28;8850;-77
2022/04/18 08:01:18;;;;;;;;;21.75;21.75;;;;;7.76;52.81;99296.63;5103393;28;8828;-77
2022/04/18 08:03:47;;;;;;;;;30.00;26.75;;;;;8.29;52.03;99301.25;5070825;28;8856;-78
2022/04/18 08:06:16;;;;;;;;;25.25;24.25;;;;;7.64;52.42;99305.19;5052774;28;8982;-79
2022/04/18 08:09:03;;;;;;;;;23.50;23.00;;;;;7.91;51.73;99301.91;5049379;28;8854;-78
2022/04/18 08:11:34;;;;;;;;;28.00;26.50;;;;;7.58;52.50;99310.31;5066219;28;8862;-78
2022/04/18 08:14:04;;;;;;;;;28.75;25.25;;;;;7.60;52.07;99300.84;5049375;28;8850;-78
2022/04/18 08:16:46;;;;;;;;;27.50;26.75;;;;;7.91;51.28;99295.84;5000992;28;8978;-79
2022/04/18 08:19:35;;;;;;;;;32.25;28.75;;;;;8.49;49.77;99288.38;5047459;28;8861;-77
2022/04/18 08:22:04;;;;;;;;;25.75;24.00;;;;;8.65;49.00;99286.69;5064155;28;8849;-76
2022/04/18 08:24:39;;;;;;;;;28.25;26.75;;;;;8.94;47.93;99291.09;5015557;28;8849;-77
2022/04/18 08:27:40;;;;;;;;;80.67;63.33;;;;;9.20;48.55;99275.53;5047228;28;8934;-79
2022/04/18 08:30:15;;;;;;;;;75.33;58.00;;;;;9.63;46.78;99280.72;5063736;28;9426;-78
2022/04/18 08:32:50;;;;;;;;;43.75;38.25;;;;;9.91;45.91;99267.66;5080078;28;9266;-77
2022/04/18 08:35:19;;;;;;;;;20.00;19.00;;;;;9.04;47.37;99273.78;5046625;28;9470;-77
2022/04/18 08:37:48;;;;;;;;;17.50;17.25;;;;;9.30;46.49;99279.00;5063276;28;9691;-80
2022/04/18 08:40:42;;;;;;;;;25.50;22.75;;;;;9.44;45.79;99279.00;5023741;28;8883;-79
2022/04/18 08:43:13;;;;;;;;;20.00;19.25;;;;;9.66;46.33;99279.84;5079827;28;8876;-78
2022/04/18 08:45:42;;;;;;;;;16.80;16.60;;;;;10.13;45.28;99277.16;5033602;28;8837;-79
2022/04/18 08:53:47;;;;;;;;;17.40;13.80;;;;;9.15;44.60;99285.94;5028811;28;8896;-79
2022/04/18 08:56:15;;;;;;;;;15.40;14.00;;;;;8.62;46.88;99286.72;5012401;28;8840;-79
2022/04/18 08:58:46;;;;;;;;;16.40;15.40;;;;;8.30;47.72;99276.13;5045874;28;8952;-77
2022/04/18 09:01:18;;;;;;;;;13.00;12.80;;;;;8.40;47.74;99276.19;5045946;28;8852;-79
2022/04/18 09:03:47;;;;;;;;;19.75;16.25;;;;;8.84;46.91;99276.34;5048553;28;9658;-77
2022/04/18 09:06:17;;;;;;;;;17.25;16.00;;;;;9.13;45.88;99277.28;5065430;28;8870;-80
2022/04/18 09:08:57;;;;;;;;;17.25;17.00;;;;;9.05;46.46;99272.91;5034252;28;8881;-79
2022/04/18 09:11:33;;;;;;;;;17.40;17.00;;;;;9.01;46.38;99272.03;5004240;28;8965;-79
2022/04/18 09:14:09;;;;;;;;;11.80;11.00;;;;;9.12;45.94;99264.25;5022797;28;8834;-77
2022/04/18 09:16:40;;;;;;;;;16.40;13.80;;;;;9.40;46.02;99256.47;5032111;28;8866;-79
2022/04/18 09:19:13;;;;;;;;;15.80;14.60;;;;;9.86;45.04;99246.81;5048457;28;8849;-77
2022/04/18 09:21:45;;;;;;;;;17.60;16.00;;;;;10.32;43.92;99245.84;5031887;28;8826;-80
2022/04/18 09:24:31;;;;;;;;;18.00;15.80;;;;;10.70;43.25;99236.97;5014896;28;8850;-79
2022/04/18 09:27:27;;;;;;;;;15.60;13.40;;;;;11.16;41.61;99228.81;5030951;28;8871;-78
2022/04/18 09:30:06;;;;;;;;;15.20;12.00;;;;;10.47;41.54;99244.91;5069473;28;8872;-77
2022/04/18 09:32:38;;;;;;;;;17.40;14.80;;;;;10.14;42.85;99236.34;5069387;28;8964;-77
2022/04/18 09:35:25;;;;;;;;;13.00;12.40;;;;;10.61;43.17;99230.06;5070247;28;8891;-80
2022/04/18 09:38:00;;;;;;;;;13.80;13.20;;;;;11.10;41.61;99221.03;5056450;28;8840;-80
2022/04/18 09:40:51;;;;;;;;;16.00;15.20;;;;;10.60;42.28;99222.25;5049385;28;8845;-78
2022/04/18 09:43:24;;;;;;;;;11.40;10.20;;;;;10.97;40.96;99216.78;5032389;28;8887;-77
2022/04/18 09:45:56;;;;;;;;;14.80;9.60;;;;;11.32;39.36;99212.16;5047523;28;8947;-78
2022/04/18 09:48:33;;;;;;;;;13.60;10.40;;;;;11.68;37.91;99206.56;5055693;28;8988;-78
2022/04/18 09:51:11;;;;;;;;;14.40;13.20;;;;;11.89;37.21;99198.53;5038676;28;8882;-77
2022/04/18 09:53:47;;;;;;;;;12.00;10.80;;;;;12.17;36.70;99200.78;5070578;28;8891;-77
2022/04/18 09:56:18;;;;;;;;;12.20;11.80;;;;;12.51;36.52;99195.13;5036268;28;8895;-79
2022/04/18 09:58:47;;;;;;;;;10.00;10.00;;;;;12.50;34.65;99203.88;5051786;28;8998;-79
2022/04/18 10:01:35;;;;;;;;;9.60;7.00;;;;;12.63;34.68;99187.09;5051380;28;8846;-81
2022/04/18 10:04:05;;;;;;;;;12.40;10.00;;;;;12.90;34.33;99189.34;5067649;28;8840;-78
2022/04/18 10:06:35;;;;;;;;;13.80;12.60;;;;;13.12;34.25;99193.34;5050515;28;8910;-78
2022/04/18 10:09:04;;;;;;;;;8.60;8.40;;;;;13.25;34.13;99189.63;5033690;28;8876;-79
2022/04/18 10:11:33;;;;;;;;;11.00;10.00;;;;;13.41;33.00;99187.63;5050610;28;8848;-78
2022/04/18 10:14:03;;;;;;;;;6.00;6.00;;;;;13.56;31.67;99183.00;5034389;28;8852;-79
2022/04/18 10:16:32;;;;;;;;;12.60;9.60;;;;;13.85;32.17;99174.56;5046716;28;8866;-78
2022/04/18 10:19:19;;;;;;;;;9.00;8.20;;;;;14.12;32.29;99173.16;5047771;28;8828;-78
2022/04/18 10:21:55;;;;;;;;;10.80;10.80;;;;;14.23;32.49;99173.78;5046898;28;9039;-80
2022/04/18 10:24:47;;;;;;;;;10.40;10.40;;;;;13.84;31.03;99162.38;5032621;28;9084;-77
2022/04/18 10:27:48;;;;;;;;;10.80;10.00;;;;;13.49;31.99;99157.81;5047148;28;8863;-77
2022/04/18 10:30:18;;;;;;;;;8.60;8.40;;;;;13.09;32.75;99161.09;5046737;28;8859;-78
2022/04/18 10:32:48;;;;;;;;;9.00;9.00;;;;;13.26;32.83;99159.06;4933362;28;8886;-78
2022/04/18 10:35:18;;;;;;;;;6.40;5.80;;;;;13.47;32.46;99156.97;5047056;28;9652;-81
2022/04/18 10:37:55;;;;;;;;;12.00;11.80;;;;;13.70;31.54;99159.16;5030449;28;8902;-78
2022/04/18 10:40:24;;;;;;;;;9.00;9.00;;;;;13.05;31.61;99158.53;5030353;28;8886;-78
2022/04/18 10:42:55;;;;;;;;;7.60;7.60;;;;;13.09;30.07;99153.25;5029896;28;8917;-78
2022/04/18 10:45:24;;;;;;;;;9.00;6.20;;;;;13.14;30.27;99140.97;4974484;28;8835;-77
2022/04/18 10:48:08;;;;;;;;;9.00;9.00;;;;;13.26;29.78;99138.09;5021223;28;8869;-78
2022/04/18 10:50:41;;;;;;;;;8.00;8.00;;;;;12.79;29.63;99148.47;5029741;28;9704;-79
2022/04/18 10:53:19;;;;;;;;;5.00;5.00;;;;;11.51;31.68;99144.94;5013223;28;8849;-78
2022/04/18 10:56:13;;;;;;;;;8.60;8.00;;;;;11.45;32.40;99147.59;5013294;28;10062;-79
2022/04/18 10:58:44;;;;;;;;;8.80;8.80;;;;;12.24;32.71;99144.09;5013126;28;9606;-76
2022/04/18 11:01:15;;;;;;;;;7.80;7.80;;;;;12.92;32.07;99130.84;5029858;28;8865;-80
2022/04/18 11:03:47;;;;;;;;;11.80;10.00;;;;;12.97;31.20;99125.53;5062488;28;8847;-77
2022/04/18 11:06:46;;;;;;;;;10.00;9.00;;;;;12.62;31.46;99129.56;5029703;28;8853;-78
2022/04/18 11:09:19;;;;;;;;;7.20;7.20;;;;;12.64;32.69;99120.81;5046312;28;8867;-82
2022/04/18 11:11:48;;;;;;;;;3.20;2.80;;;;;13.10;28.17;99126.16;5046153;28;8865;-77
2022/04/18 11:14:20;;;;;;;;;3.80;3.80;;;;;13.59;27.39;99117.44;5030044;28;8857;-78
2022/04/18 11:17:00;;;;;;;;;5.00;4.20;;;;;14.04;26.94;99126.13;5058416;28;8877;-77
2022/04/18 11:19:30;;;;;;;;;3.40;3.40;;;;;14.35;26.18;99111.47;5075845;28;9041;-79
2022/04/18 11:22:21;;;;;;;;;4.00;4.00;;;;;14.59;24.83;99113.56;5047299;28;8861;-78
2022/04/18 11:25:03;;;;;;;;;5.60;5.00;;;;;13.82;25.99;99116.97;5030697;28;8888;-79
2022/04/18 11:27:35;;;;;;;;;5.80;5.80;;;;;14.23;25.60;99116.09;5030369;28;8853;-78
2022/04/18 11:30:11;;;;;;;;;8.60;5.80;;;;;14.78;25.49;99110.47;5063874;28;8864;-78
2022/04/18 11:32:41;;;;;;;;;6.00;6.00;;;;;15.25;23.70;99100.50;5063840;28;8922;-79
2022/04/18 11:35:15;;;;;;;;;7.00;5.40;;;;;14.77;24.44;99099.09;5029392;28;8872;-78
2022/04/18 11:37:46;;;;;;;;;6.20;6.20;;;;;14.71;25.60;99103.66;5067539;28;8938;-76
2022/04/18 11:40:17;;;;;;;;;6.80;6.80;;;;;14.94;26.07;99103.06;5051694;28;8884;-79
2022/04/18 11:42:46;;;;;;;;;6.20;6.20;;;;;15.20;25.59;99100.63;5027197;28;8961;-78
2022/04/18 11:45:25;;;;;;;;;7.00;6.40;;;;;15.44;25.33;99089.50;5043550;28;8898;-79
2022/04/18 11:47:55;;;;;;;;;5.20;5.00;;;;;15.70;25.10;99094.00;5009907;28;8918;-78
2022/04/18 11:50:23;;;;;;;;;7.20;6.60;;;;;15.97;24.14;99087.09;5025790;28;8878;-79
2022/04/18 11:53:03;;;;;;;;;4.20;4.20;;;;;16.22;21.31;99081.97;5025564;28;8899;-77
2022/04/18 11:55:33;;;;;;;;;5.00;5.00;;;;;16.19;21.78;99084.69;5025744;28;8875;-79
2022/04/18 11:58:02;;;;;;;;;4.60;4.60;;;;;16.30;23.43;99090.47;5025267;28;9622;-80
2022/04/18 12:08:51;;;;;;;;;6.00;6.00;;;;;15.88;23.35;99085.63;4950665;28;8889;-79
2022/04/18 12:11:20;;;;;;;;;5.40;5.40;;;;;15.92;23.78;99074.09;4950398;28;8878;-78
2022/04/18 12:13:49;;;;;;;;;8.40;8.00;;;;;15.97;24.21;99076.59;4984036;28;8890;-77
2022/04/18 12:16:21;;;;;;;;;8.60;8.40;;;;;15.60;24.89;99068.00;5012752;28;8872;-79
2022/04/18 12:18:55;;;;;;;;;5.80;5.80;;;;;15.44;24.88;99073.72;5012201;28;8844;-79
2022/04/18 12:21:24;;;;;;;;;8.60;8.60;;;;;15.38;25.27;99070.34;5029436;28;8874;-79
2022/04/18 12:23:56;;;;;;;;;7.80;6.60;;;;;15.05;25.80;99068.66;4996425;28;8852;-79
2022/04/18 12:26:26;;;;;;;;;10.40;8.80;;;;;14.94;25.74;99082.94;5012861;28;8856;-78
2022/04/18 12:29:00;;;;;;;;;5.00;5.00;;;;;15.06;25.41;99071.22;5012857;28;8856;-77
2022/04/18 12:31:29;;;;;;;;;5.80;5.80;;;;;15.37;24.97;99070.44;5029291;28;8998;-79